Time;durP1;ratioP1;P1;durP2;ratioP2;P2;SDS_P1;SDS_P2;PMS_P1;PMS_P2;Temp;Humidity;BMP_temperature;BMP_pressure;BME280_temperature;BME280_humidity;BME280_pressure;Samples;Min_cycle;Max_cycle;Signal;HPM_P1;HPM_P2
2022/05/01 00:01:00;;;;;;;22.35;10.13;;;;;;;;;;4979088;28;20408;-72
2022/05/01 00:03:31;;;;;;;22.25;11.00;;;;;;;;;;5012833;28;20025;-72
2022/05/01 00:05:58;;;;;;;20.40;10.90;;;;;;;;;;5005259;28;20032;-72
2022/05/01 00:08:23;;;;;;;20.13;11.27;;;;;;;;;;5011888;28;20515;-73
2022/05/01 00:10:48;;;;;;;18.67;10.10;;;;;;;;;;5007899;28;20157;-72
2022/05/01 00:13:15;;;;;;;17.63;10.57;;;;;;;;;;5010081;28;20026;-72
2022/05/01 00:15:40;;;;;;;21.63;12.82;;;;;;;;;;5012884;28;20034;-73
2022/05/01 00:18:05;;;;;;;27.50;12.30;;;;;;;;;;5010383;28;20030;-72
2022/05/01 00:20:30;;;;;;;26.48;11.27;;;;;;;;;;5000380;28;20258;-72
2022/05/01 00:22:56;;;;;;;19.13;11.00;;;;;;;;;;4999962;28;20061;-72
2022/05/01 00:25:21;;;;;;;20.85;11.75;;;;;;;;;;5002905;28;20024;-72
2022/05/01 00:27:46;;;;;;;24.27;10.95;;;;;;;;;;4996105;28;20484;-72
2022/05/01 00:30:12;;;;;;;25.42;12.23;;;;;;;;;;5008642;28;20463;-73
2022/05/01 00:38:05;;;;;;;24.67;12.30;;;;;;;;;;5004349;28;20229;-72
2022/05/01 00:40:31;;;;;;;22.47;11.70;;;;;;;;;;5004582;28;20116;-72
2022/05/01 00:42:59;;;;;;;28.30;12.52;;;;;;;;;;5004012;28;20275;-72
2022/05/01 00:45:25;;;;;;;19.73;11.35;;;;;;;;;;5004971;28;20037;-72
2022/05/01 00:47:50;;;;;;;25.50;12.52;;;;;;;;;;5005441;28;20022;-72
2022/05/01 00:50:16;;;;;;;26.58;12.52;;;;;;;;;;5004354;28;20757;-72
2022/05/01 00:52:41;;;;;;;21.45;11.52;;;;;;;;;;5004287;28;20581;-73
2022/05/01 00:55:07;;;;;;;22.87;12.27;;;;;;;;;;5009196;28;20091;-72
2022/05/01 00:57:32;;;;;;;25.60;12.23;;;;;;;;;;4997545;28;20756;-72
2022/05/01 00:59:57;;;;;;;24.60;11.80;;;;;;;;;;5005470;28;20084;-72
2022/05/01 01:02:23;;;;;;;24.23;12.93;;;;;;;;;;4992981;28;20698;-72
2022/05/01 01:04:48;;;;;;;27.85;13.38;;;;;;;;;;4992791;28;20018;-73
2022/05/01 01:07:14;;;;;;;29.07;13.10;;;;;;;;;;5003793;28;20449;-73
2022/05/01 01:09:39;;;;;;;30.10;12.45;;;;;;;;;;4999781;28;20277;-72
2022/05/01 01:14:48;;;;;;;26.92;11.88;;;;;;;;;;5002250;28;20037;-73
2022/05/01 01:17:13;;;;;;;23.03;11.37;;;;;;;;;;5001135;28;20021;-72
2022/05/01 01:19:38;;;;;;;26.67;12.57;;;;;;;;;;5003978;28;20358;-72
2022/05/01 01:22:04;;;;;;;25.13;12.23;;;;;;;;;;4998313;28;20065;-73
2022/05/01 01:24:29;;;;;;;27.88;12.95;;;;;;;;;;5003879;28;20474;-72
2022/05/01 01:26:56;;;;;;;24.05;11.48;;;;;;;;;;5004110;28;20117;-73
2022/05/01 01:32:05;;;;;;;24.95;12.85;;;;;;;;;;4998693;28;20131;-72
2022/05/01 01:34:34;;;;;;;30.55;15.40;;;;;;;;;;4987347;28;20029;-72
2022/05/01 01:37:00;;;;;;;23.90;11.85;;;;;;;;;;4997579;28;20034;-72
2022/05/01 01:39:25;;;;;;;27.02;13.10;;;;;;;;;;4996988;28;20060;-72
2022/05/01 01:41:51;;;;;;;30.77;13.02;;;;;;;;;;5000888;28;20042;-72
2022/05/01 01:44:16;;;;;;;28.83;14.15;;;;;;;;;;4997840;28;20061;-72
2022/05/01 01:46:42;;;;;;;26.48;12.38;;;;;;;;;;5007744;28;20397;-72
2022/05/01 01:49:07;;;;;;;28.08;12.35;;;;;;;;;;5020165;28;20041;-72
2022/05/01 01:51:33;;;;;;;32.10;14.07;;;;;;;;;;5006488;28;20043;-72
2022/05/01 01:53:58;;;;;;;28.35;13.20;;;;;;;;;;5002731;28;20022;-72
2022/05/01 01:56:23;;;;;;;30.58;12.90;;;;;;;;;;5004814;28;20084;-72
2022/05/01 01:58:49;;;;;;;25.00;11.63;;;;;;;;;;4998870;28;20033;-72
2022/05/01 02:01:14;;;;;;;26.50;13.02;;;;;;;;;;4997100;28;20279;-72
2022/05/01 02:03:39;;;;;;;32.95;13.38;;;;;;;;;;5001630;28;20037;-72
2022/05/01 02:06:05;;;;;;;27.90;13.15;;;;;;;;;;5003161;28;20025;-73
2022/05/01 02:08:31;;;;;;;30.70;15.07;;;;;;;;;;5004952;28;20065;-72
2022/05/01 02:10:56;;;;;;;27.80;14.63;;;;;;;;;;5004055;28;20021;-72
2022/05/01 02:13:21;;;;;;;27.77;13.27;;;;;;;;;;4975418;28;20030;-72
2022/05/01 02:15:47;;;;;;;30.55;13.77;;;;;;;;;;4994770;28;20614;-72
2022/05/01 02:18:12;;;;;;;33.40;14.55;;;;;;;;;;4996394;28;20033;-73
2022/05/01 02:23:22;;;;;;;30.70;15.40;;;;;;;;;;4995425;28;20049;-72
2022/05/01 02:25:47;;;;;;;32.30;14.02;;;;;;;;;;4999690;28;20029;-72
2022/05/01 02:28:12;;;;;;;29.00;12.82;;;;;;;;;;4998593;28;20038;-72
2022/05/01 02:30:38;;;;;;;33.45;15.40;;;;;;;;;;5006149;28;20108;-72
2022/05/01 02:33:06;;;;;;;34.15;14.63;;;;;;;;;;5002698;28;20269;-72
2022/05/01 02:35:32;;;;;;;33.35;14.82;;;;;;;;;;5009781;28;20021;-72
2022/05/01 02:37:57;;;;;;;31.35;15.48;;;;;;;;;;4997195;28;20729;-72
2022/05/01 02:40:22;;;;;;;34.67;15.75;;;;;;;;;;5004580;28;20365;-72
2022/05/01 02:42:47;;;;;;;34.60;16.23;;;;;;;;;;5001209;28;20041;-72
2022/05/01 02:45:13;;;;;;;29.70;15.30;;;;;;;;;;4998524;28;20034;-72
2022/05/01 02:47:38;;;;;;;32.42;14.80;;;;;;;;;;5002131;28;20392;-72
2022/05/01 02:50:03;;;;;;;30.50;15.98;;;;;;;;;;5002797;28;20029;-73
2022/05/01 02:52:28;;;;;;;35.35;15.02;;;;;;;;;;5000707;28;20281;-72
2022/05/01 02:54:54;;;;;;;34.65;14.90;;;;;;;;;;4999202;28;20026;-72
2022/05/01 02:57:19;;;;;;;34.33;15.80;;;;;;;;;;5008551;28;20442;-72
2022/05/01 02:59:44;;;;;;;36.42;17.00;;;;;;;;;;5004381;28;20053;-72
2022/05/01 03:02:09;;;;;;;31.50;14.70;;;;;;;;;;5006409;28;20029;-72
2022/05/01 03:04:35;;;;;;;31.70;14.17;;;;;;;;;;4988979;28;20113;-72
2022/05/01 03:07:01;;;;;;;39.80;16.70;;;;;;;;;;4998581;28;20290;-72
2022/05/01 03:09:26;;;;;;;38.20;16.95;;;;;;;;;;4984910;28;20026;-72
2022/05/01 03:11:51;;;;;;;38.30;17.85;;;;;;;;;;5004585;28;20357;-72
2022/05/01 03:14:17;;;;;;;35.47;16.17;;;;;;;;;;5010350;28;20061;-72
2022/05/01 03:16:42;;;;;;;31.13;15.23;;;;;;;;;;4999135;28;20282;-72
2022/05/01 03:24:36;;;;;;;34.40;15.07;;;;;;;;;;5003948;28;20085;-72
2022/05/01 03:27:01;;;;;;;42.33;16.08;;;;;;;;;;5001219;28;20476;-72
2022/05/01 03:29:26;;;;;;;40.45;17.33;;;;;;;;;;4992256;28;20140;-72
2022/05/01 03:31:52;;;;;;;42.00;17.80;;;;;;;;;;4998169;28;20049;-72
2022/05/01 03:34:18;;;;;;;35.00;15.95;;;;;;;;;;4982841;28;20322;-72
2022/05/01 03:36:44;;;;;;;36.90;16.60;;;;;;;;;;4993092;28;20045;-72
2022/05/01 03:39:10;;;;;;;39.58;16.17;;;;;;;;;;4995010;28;20022;-72
2022/05/01 03:41:35;;;;;;;36.42;16.42;;;;;;;;;;4997947;28;20527;-72
2022/05/01 03:44:00;;;;;;;39.10;16.98;;;;;;;;;;5001116;28;20029;-72
2022/05/01 03:46:26;;;;;;;33.50;17.10;;;;;;;;;;5010446;28;20084;-72
2022/05/01 03:48:51;;;;;;;38.90;17.08;;;;;;;;;;4987839;28;20302;-73
2022/05/01 03:51:16;;;;;;;40.58;18.27;;;;;;;;;;4998549;28;20480;-72
2022/05/01 03:53:41;;;;;;;39.10;17.52;;;;;;;;;;5004684;28;20032;-72
2022/05/01 03:56:07;;;;;;;41.27;17.07;;;;;;;;;;5010832;28;20451;-72
2022/05/01 03:58:32;;;;;;;36.33;15.82;;;;;;;;;;4983759;28;20317;-72
2022/05/01 04:00:58;;;;;;;37.63;16.90;;;;;;;;;;5000113;28;20036;-72
2022/05/01 04:03:23;;;;;;;37.00;16.92;;;;;;;;;;4979708;28;20271;-72
2022/05/01 04:05:48;;;;;;;37.60;16.77;;;;;;;;;;5003598;28;20068;-72
2022/05/01 04:08:14;;;;;;;40.25;17.35;;;;;;;;;;4997076;28;20017;-72
2022/05/01 04:10:41;;;;;;;52.33;18.37;;;;;;;;;;4994943;28;20018;-72
2022/05/01 04:13:06;;;;;;;39.22;16.52;;;;;;;;;;4997745;28;20710;-72
2022/05/01 04:15:31;;;;;;;50.97;19.92;;;;;;;;;;4998311;28;20038;-72
2022/05/01 04:17:57;;;;;;;40.33;17.35;;;;;;;;;;4997274;28;20045;-73
2022/05/01 04:20:23;;;;;;;38.22;17.33;;;;;;;;;;4998996;28;20405;-72
2022/05/01 04:22:49;;;;;;;41.70;18.08;;;;;;;;;;4994144;28;20033;-72
2022/05/01 04:25:19;;;;;;;51.10;19.25;;;;;;;;;;5001010;28;20043;-72
2022/05/01 04:27:44;;;;;;;42.05;17.73;;;;;;;;;;4999110;28;20028;-72
2022/05/01 04:30:13;;;;;;;40.25;16.63;;;;;;;;;;4999665;28;20495;-73
2022/05/01 04:32:51;;;;;;;42.38;18.13;;;;;;;;;;4991391;28;20030;-72
2022/05/01 04:35:20;;;;;;;39.55;18.30;;;;;;;;;;4997451;28;20029;-72
2022/05/01 04:37:46;;;;;;;40.83;17.70;;;;;;;;;;5000040;28;20029;-72
2022/05/01 04:40:11;;;;;;;40.45;16.58;;;;;;;;;;4998939;28;20452;-72
2022/05/01 04:42:36;;;;;;;39.55;15.15;;;;;;;;;;5001140;28;20034;-72
2022/05/01 04:45:01;;;;;;;44.22;17.52;;;;;;;;;;4994526;28;20487;-72
2022/05/01 04:47:27;;;;;;;38.27;16.37;;;;;;;;;;5002211;28;20021;-72
2022/05/01 04:49:52;;;;;;;48.38;19.02;;;;;;;;;;5004847;28;20650;-72
2022/05/01 04:52:17;;;;;;;36.67;16.80;;;;;;;;;;4996850;28;20485;-72
2022/05/01 04:54:42;;;;;;;44.10;18.58;;;;;;;;;;5006776;28;20271;-73
2022/05/01 04:57:13;;;;;;;40.03;17.70;;;;;;;;;;5014743;28;20029;-72
2022/05/01 04:59:38;;;;;;;45.30;18.08;;;;;;;;;;5003756;28;20089;-72
2022/05/01 05:02:03;;;;;;;45.15;18.67;;;;;;;;;;4993850;28;20632;-72
2022/05/01 05:04:29;;;;;;;42.42;17.80;;;;;;;;;;4999776;28;20440;-72
2022/05/01 05:06:55;;;;;;;41.30;17.38;;;;;;;;;;5009797;28;20040;-72
2022/05/01 05:12:07;;;;;;;44.17;17.60;;;;;;;;;;4995503;28;20680;-72
2022/05/01 05:14:32;;;;;;;43.17;18.20;;;;;;;;;;4996847;28;20022;-72
2022/05/01 05:16:58;;;;;;;36.15;16.13;;;;;;;;;;4998222;28;20033;-73
2022/05/01 05:19:23;;;;;;;40.53;17.70;;;;;;;;;;5001111;28;20105;-72
2022/05/01 05:21:48;;;;;;;47.42;18.52;;;;;;;;;;4998813;28;20286;-72
2022/05/01 05:24:13;;;;;;;47.53;17.97;;;;;;;;;;5000227;28;20049;-72
2022/05/01 05:26:39;;;;;;;41.80;15.98;;;;;;;;;;5002705;28;20371;-72
2022/05/01 05:29:04;;;;;;;43.33;17.27;;;;;;;;;;5002148;28;20796;-72
2022/05/01 05:31:29;;;;;;;37.87;17.33;;;;;;;;;;5009673;28;20120;-72
2022/05/01 05:33:54;;;;;;;38.17;18.02;;;;;;;;;;5000904;28;20267;-72
2022/05/01 05:36:19;;;;;;;44.85;17.83;;;;;;;;;;5002565;28;20034;-72
2022/05/01 05:38:44;;;;;;;44.20;18.08;;;;;;;;;;5009056;28;20124;-72
2022/05/01 05:41:10;;;;;;;48.73;19.07;;;;;;;;;;5009169;28;20434;-72
2022/05/01 05:43:35;;;;;;;46.20;19.58;;;;;;;;;;5000265;28;20271;-72
2022/05/01 05:46:00;;;;;;;37.92;16.13;;;;;;;;;;5004964;28;20025;-72
2022/05/01 05:48:25;;;;;;;44.20;17.63;;;;;;;;;;5015752;28;20813;-72
2022/05/01 05:50:50;;;;;;;38.17;17.38;;;;;;;;;;5015440;28;20270;-72
2022/05/01 05:53:15;;;;;;;43.30;17.20;;;;;;;;;;5002395;28;20045;-72
2022/05/01 05:55:41;;;;;;;41.72;18.83;;;;;;;;;;5004863;28;20281;-72
2022/05/01 05:58:06;;;;;;;43.37;18.40;;;;;;;;;;4990384;28;20026;-72
2022/05/01 06:00:31;;;;;;;39.65;18.48;;;;;;;;;;5003930;28;20275;-72
2022/05/01 06:02:56;;;;;;;41.10;19.17;;;;;;;;;;4988579;28;20476;-72
2022/05/01 06:05:21;;;;;;;42.15;18.98;;;;;;;;;;5005368;28;20271;-72
2022/05/01 06:07:46;;;;;;;43.85;18.15;;;;;;;;;;5005573;28;20560;-73
2022/05/01 06:10:11;;;;;;;45.07;18.50;;;;;;;;;;5006102;28;20425;-72
2022/05/01 06:12:44;;;;;;;46.00;19.42;;;;;;;;;;5005814;28;20259;-72
2022/05/01 06:15:09;;;;;;;43.30;19.05;;;;;;;;;;5006683;28;20168;-72
2022/05/01 06:17:35;;;;;;;47.80;19.77;;;;;;;;;;5016470;28;20026;-72
2022/05/01 06:20:00;;;;;;;39.33;17.33;;;;;;;;;;5001848;28;20057;-72
2022/05/01 06:22:25;;;;;;;43.72;18.65;;;;;;;;;;5003288;28;20049;-73
2022/05/01 06:24:50;;;;;;;39.40;17.42;;;;;;;;;;5008287;28;20068;-72
2022/05/01 06:27:16;;;;;;;41.65;18.30;;;;;;;;;;5004020;28;20475;-73
2022/05/01 06:29:41;;;;;;;42.53;17.42;;;;;;;;;;4999823;28;20101;-73
2022/05/01 06:32:07;;;;;;;38.03;17.40;;;;;;;;;;5012237;28;20026;-72
2022/05/01 06:34:33;;;;;;;35.92;17.88;;;;;;;;;;5016337;28;20131;-72
2022/05/01 06:36:58;;;;;;;43.90;18.13;;;;;;;;;;5000024;28;20575;-72
2022/05/01 06:39:23;;;;;;;47.10;17.37;;;;;;;;;;5007496;28;20030;-72
2022/05/01 06:41:48;;;;;;;38.17;18.13;;;;;;;;;;5004621;28;20360;-72
2022/05/01 06:44:13;;;;;;;37.42;18.48;;;;;;;;;;5012766;28;20779;-73
2022/05/01 06:46:38;;;;;;;39.95;18.20;;;;;;;;;;4998091;28;20488;-72
2022/05/01 06:49:04;;;;;;;36.45;18.08;;;;;;;;;;5003968;28;20109;-71
2022/05/01 06:51:29;;;;;;;38.63;18.07;;;;;;;;;;4983699;28;20215;-73
2022/05/01 06:53:54;;;;;;;37.83;18.45;;;;;;;;;;4997689;28;20267;-71
2022/05/01 06:56:19;;;;;;;41.10;19.67;;;;;;;;;;5003381;28;20033;-72
2022/05/01 06:58:44;;;;;;;39.33;18.20;;;;;;;;;;5005683;28;20391;-71
2022/05/01 07:01:09;;;;;;;38.83;18.50;;;;;;;;;;5002731;28;20095;-71
2022/05/01 07:03:35;;;;;;;35.70;17.08;;;;;;;;;;5005829;28;20774;-72
2022/05/01 07:06:02;;;;;;;40.28;18.27;;;;;;;;;;5015267;28;20476;-74
2022/05/01 07:08:27;;;;;;;40.70;17.52;;;;;;;;;;5000190;28;20483;-71
2022/05/01 07:10:52;;;;;;;33.42;15.25;;;;;;;;;;5000442;28;20084;-72
2022/05/01 07:13:18;;;;;;;42.72;17.60;;;;;;;;;;5005363;28;20026;-72
2022/05/01 07:15:43;;;;;;;35.28;16.88;;;;;;;;;;5001673;28;20638;-72
2022/05/01 07:18:08;;;;;;;33.33;17.57;;;;;;;;;;5001159;28;20204;-72
2022/05/01 07:20:35;;;;;;;39.42;17.27;;;;;;;;;;4997522;28;20768;-72
2022/05/01 07:23:01;;;;;;;35.80;17.25;;;;;;;;;;4998760;28;20033;-72
2022/05/01 07:25:26;;;;;;;42.28;19.60;;;;;;;;;;4999582;28;20021;-72
2022/05/01 07:27:51;;;;;;;36.93;17.23;;;;;;;;;;5003619;28;20017;-72
2022/05/01 07:30:17;;;;;;;33.53;15.87;;;;;;;;;;4997495;28;20154;-72
2022/05/01 07:32:42;;;;;;;37.75;16.70;;;;;;;;;;4997249;28;20279;-71
2022/05/01 07:35:07;;;;;;;31.67;15.80;;;;;;;;;;4995945;28;20725;-71
2022/05/01 07:37:32;;;;;;;32.25;16.38;;;;;;;;;;4998057;28;20034;-72
2022/05/01 07:39:57;;;;;;;35.20;17.87;;;;;;;;;;4998613;28;20026;-73
2022/05/01 07:42:23;;;;;;;32.25;16.88;;;;;;;;;;4996022;28;20424;-72
2022/05/01 07:44:49;;;;;;;33.40;15.70;;;;;;;;;;5000288;28;20395;-71
2022/05/01 07:47:15;;;;;;;33.15;16.20;;;;;;;;;;5002131;28;20034;-72
2022/05/01 07:49:40;;;;;;;34.67;16.40;;;;;;;;;;5000617;28;20026;-71
2022/05/01 07:52:05;;;;;;;31.33;16.15;;;;;;;;;;5011012;28;20630;-72
2022/05/01 07:54:30;;;;;;;33.58;16.30;;;;;;;;;;5005638;28;20037;-73
2022/05/01 07:56:56;;;;;;;27.95;13.23;;;;;;;;;;5003477;28;20060;-71
2022/05/01 07:59:21;;;;;;;28.88;13.15;;;;;;;;;;4998227;28;20037;-73
2022/05/01 08:01:47;;;;;;;25.83;14.57;;;;;;;;;;5013912;28;20021;-72
2022/05/01 08:04:28;;;;;;;25.67;13.95;;;;;;;;;;5000357;28;20417;-71
2022/05/01 08:06:53;;;;;;;29.95;14.52;;;;;;;;;;4995318;28;20025;-71
2022/05/01 08:09:18;;;;;;;26.67;13.95;;;;;;;;;;4999861;28;20097;-72
2022/05/01 08:11:44;;;;;;;24.15;12.82;;;;;;;;;;4994148;28;20435;-71
2022/05/01 08:14:12;;;;;;;23.58;12.48;;;;;;;;;;4994231;28;20099;-72
2022/05/01 08:16:37;;;;;;;27.20;14.45;;;;;;;;;;4991924;28;20014;-71
2022/05/01 08:21:46;;;;;;;23.02;12.43;;;;;;;;;;5001018;28;20045;-71
2022/05/01 08:24:11;;;;;;;21.02;11.82;;;;;;;;;;4997761;28;20025;-71
2022/05/01 08:26:37;;;;;;;26.98;12.55;;;;;;;;;;5002936;28;20112;-71
2022/05/01 08:29:02;;;;;;;24.33;12.43;;;;;;;;;;4997774;28;20040;-71
2022/05/01 08:31:28;;;;;;;24.33;11.60;;;;;;;;;;4993018;28;20026;-71
2022/05/01 08:33:56;;;;;;;22.40;12.02;;;;;;;;;;4998181;28;20029;-71
2022/05/01 08:36:21;;;;;;;22.70;12.50;;;;;;;;;;5004322;28;20112;-72
2022/05/01 08:38:46;;;;;;;27.13;11.90;;;;;;;;;;4995547;28;20026;-72
2022/05/01 08:41:12;;;;;;;20.57;12.10;;;;;;;;;;4998065;28;20334;-72
2022/05/01 08:43:38;;;;;;;27.08;11.73;;;;;;;;;;4998208;28;20736;-71
2022/05/01 08:46:21;;;;;;;20.45;11.73;;;;;;;;;;4992236;28;20109;-71
2022/05/01 08:48:58;;;;;;;23.63;12.67;;;;;;;;;;4994530;28;20040;-73
2022/05/01 08:51:23;;;;;;;22.42;12.45;;;;;;;;;;4993082;28;20049;-71
2022/05/01 08:53:49;;;;;;;22.67;11.73;;;;;;;;;;5002662;28;20029;-71
2022/05/01 08:56:15;;;;;;;22.45;11.60;;;;;;;;;;5007195;28;20875;-72
2022/05/01 08:58:40;;;;;;;20.05;11.55;;;;;;;;;;4996255;28;20136;-72
2022/05/01 09:01:07;;;;;;;23.35;12.25;;;;;;;;;;5014570;28;20151;-72
2022/05/01 09:03:33;;;;;;;21.33;12.40;;;;;;;;;;5004411;28;20471;-72
2022/05/01 09:05:58;;;;;;;23.20;11.65;;;;;;;;;;5003051;28;20418;-72
2022/05/01 09:08:24;;;;;;;22.45;11.85;;;;;;;;;;5012302;28;20060;-72
2022/05/01 09:10:49;;;;;;;22.02;11.40;;;;;;;;;;4997128;28;20033;-72
2022/05/01 09:13:14;;;;;;;24.20;10.90;;;;;;;;;;5000736;28;20025;-72
2022/05/01 09:15:41;;;;;;;22.77;11.00;;;;;;;;;;4994634;28;20283;-72
2022/05/01 09:18:08;;;;;;;23.70;11.32;;;;;;;;;;4994636;28;20761;-71
2022/05/01 09:20:33;;;;;;;21.58;11.02;;;;;;;;;;5011184;23;20034;-71
2022/05/01 09:22:59;;;;;;;23.67;11.35;;;;;;;;;;4998412;28;20492;-71
2022/05/01 09:25:28;;;;;;;22.10;12.43;;;;;;;;;;5008626;28;20018;-72
2022/05/01 09:27:57;;;;;;;23.52;11.50;;;;;;;;;;4997796;28;20494;-72
2022/05/01 09:30:31;;;;;;;22.52;11.18;;;;;;;;;;4996979;28;20057;-72
2022/05/01 09:32:57;;;;;;;;;;;;;;;;;;5001307;28;20022;-73
2022/05/01 09:35:22;;;;;;;18.25;10.77;;;;;;;;;;4998999;28;19968;-72
2022/05/01 09:37:48;;;;;;;18.10;10.25;;;;;;;;;;4998513;28;20100;-72
2022/05/01 09:40:27;;;;;;;24.75;10.73;;;;;;;;;;4996732;28;20558;-71
2022/05/01 09:42:53;;;;;;;21.33;10.85;;;;;;;;;;4991487;28;20018;-72
2022/05/01 09:45:18;;;;;;;20.83;11.18;;;;;;;;;;5002043;28;20788;-72
2022/05/01 09:47:44;;;;;;;17.60;10.70;;;;;;;;;;4998315;28;20057;-72
2022/05/01 09:50:09;;;;;;;23.90;11.00;;;;;;;;;;4997293;28;20745;-72
2022/05/01 09:52:54;;;;;;;22.65;11.55;;;;;;;;;;4991939;28;20026;-72
2022/05/01 09:55:19;;;;;;;;;;;;;;;;;;4994177;28;20033;-73
2022/05/01 09:57:44;;;;;;;18.05;9.82;;;;;;;;;;4993815;28;19913;-73
2022/05/01 10:00:09;;;;;;;20.27;10.00;;;;;;;;;;4991350;28;20110;-73
2022/05/01 10:02:35;;;;;;;16.90;9.63;;;;;;;;;;4994591;28;20294;-72
2022/05/01 10:05:04;;;;;;;16.07;8.97;;;;;;;;;;4994175;28;20182;-72
2022/05/01 10:07:38;;;;;;;18.70;10.48;;;;;;;;;;4992689;28;20350;-72
2022/05/01 10:10:05;;;;;;;16.58;9.25;;;;;;;;;;4998653;28;20018;-72
2022/05/01 10:12:34;;;;;;;14.50;9.10;;;;;;;;;;4995726;28;20137;-72
2022/05/01 10:14:59;;;;;;;17.73;9.80;;;;;;;;;;4996410;28;20022;-72
2022/05/01 10:17:24;;;;;;;15.93;9.32;;;;;;;;;;4999138;28;20022;-73
2022/05/01 10:19:50;;;;;;;16.10;8.93;;;;;;;;;;4993254;28;20117;-72
2022/05/01 10:22:17;;;;;;;17.95;9.25;;;;;;;;;;4996902;28;20272;-72
2022/05/01 10:24:42;;;;;;;20.85;10.52;;;;;;;;;;4995106;28;20476;-73
2022/05/01 10:27:13;;;;;;;16.98;9.88;;;;;;;;;;4998698;28;20034;-72
2022/05/01 10:29:38;;;;;;;22.10;11.45;;;;;;;;;;4999570;28;20464;-72
2022/05/01 10:32:24;;;;;;;21.93;10.67;;;;;;;;;;4998849;28;20026;-73
2022/05/01 10:35:13;;;;;;;25.02;12.98;;;;;;;;;;4997474;28;20271;-72
2022/05/01 10:37:50;;;;;;;21.23;11.57;;;;;;;;;;5010193;28;20067;-72
2022/05/01 10:40:16;;;;;;;18.40;11.48;;;;;;;;;;4998542;28;20537;-73
2022/05/01 10:42:46;;;;;;;21.08;10.85;;;;;;;;;;4999894;28;20038;-73
2022/05/01 10:45:23;;;;;;;18.55;10.45;;;;;;;;;;4999487;28;20033;-72
2022/05/01 10:47:49;;;;;;;18.27;10.85;;;;;;;;;;4999255;28;20513;-72
2022/05/01 10:50:19;;;;;;;20.30;11.23;;;;;;;;;;5000249;28;20109;-73
2022/05/01 10:53:01;;;;;;;25.98;12.00;;;;;;;;;;5000916;28;20033;-72
2022/05/01 10:55:26;;;;;;;19.60;10.52;;;;;;;;;;4999219;28;20017;-72
2022/05/01 10:58:10;;;;;;;18.90;10.87;;;;;;;;;;4997545;28;20404;-72
2022/05/01 11:00:43;;;;;;;21.08;11.45;;;;;;;;;;5002048;28;20346;-72
2022/05/01 11:03:28;;;;;;;17.13;10.43;;;;;;;;;;5000960;28;20105;-72
2022/05/01 11:05:59;;;;;;;19.52;10.52;;;;;;;;;;4999460;28;20484;-72
2022/05/01 11:08:27;;;;;;;18.48;11.32;;;;;;;;;;4999665;28;20032;-72
2022/05/01 11:10:56;;;;;;;17.42;9.85;;;;;;;;;;5001865;28;20030;-72
2022/05/01 11:13:24;;;;;;;23.92;11.43;;;;;;;;;;4999623;28;20026;-72
2022/05/01 11:15:50;;;;;;;20.38;10.73;;;;;;;;;;4998234;28;20022;-72
2022/05/01 11:18:16;;;;;;;16.50;10.95;;;;;;;;;;4999922;28;20889;-71
2022/05/01 11:20:43;;;;;;;20.55;10.70;;;;;;;;;;5001023;28;20029;-72
2022/05/01 11:23:29;;;;;;;18.35;10.35;;;;;;;;;;4999157;28;20022;-72
2022/05/01 11:26:14;;;;;;;19.90;11.27;;;;;;;;;;4996778;28;20186;-72
2022/05/01 11:28:43;;;;;;;17.80;11.10;;;;;;;;;;4996144;28;20117;-74
2022/05/01 11:31:32;;;;;;;16.45;10.60;;;;;;;;;;4993096;28;20030;-71
2022/05/01 11:34:16;;;;;;;18.20;10.68;;;;;;;;;;4996745;28;20037;-72
2022/05/01 11:36:54;;;;;;;21.52;11.20;;;;;;;;;;4996754;28;20026;-72
2022/05/01 11:39:22;;;;;;;18.60;12.23;;;;;;;;;;5011381;28;20026;-72
2022/05/01 11:41:57;;;;;;;13.88;9.65;;;;;;;;;;4996431;28;20133;-72
2022/05/01 11:44:23;;;;;;;24.17;10.85;;;;;;;;;;4991863;28;20121;-72
2022/05/01 11:46:49;;;;;;;16.00;10.73;;;;;;;;;;4992471;28;20023;-72
2022/05/01 11:49:14;;;;;;;62.65;35.95;;;;;;;;;;5001585;28;20029;-72
2022/05/01 11:51:39;;;;;;;30.63;26.67;;;;;;;;;;4985381;28;20022;-72
2022/05/01 11:54:04;;;;;;;15.35;10.63;;;;;;;;;;4990257;28;20030;-72
2022/05/01 12:04:44;;;;;;;;;;;;;;;;;;4995208;28;20033;-71
2022/05/01 12:07:14;;;;;;;16.42;10.43;;;;;;;;;;4989422;28;19921;-78
2022/05/01 12:09:40;;;;;;;20.92;10.50;;;;;;;;;;4986331;28;20026;-72
2022/05/01 12:12:12;;;;;;;21.88;10.45;;;;;;;;;;4986108;28;20483;-72
2022/05/01 12:14:38;;;;;;;16.77;10.75;;;;;;;;;;4989379;28;20109;-70
2022/05/01 12:17:08;;;;;;;21.15;11.13;;;;;;;;;;4989539;28;20522;-72
2022/05/01 12:19:34;;;;;;;19.77;11.75;;;;;;;;;;4988268;28;20027;-72
2022/05/01 12:21:59;;;;;;;20.50;11.77;;;;;;;;;;4989486;28;20061;-72
2022/05/01 12:24:25;;;;;;;18.10;10.85;;;;;;;;;;4985338;28;20675;-72
2022/05/01 12:26:52;;;;;;;15.18;10.43;;;;;;;;;;4989224;28;20022;-72
2022/05/01 12:29:18;;;;;;;22.67;12.05;;;;;;;;;;4990160;28;20049;-72
2022/05/01 12:31:55;;;;;;;19.73;11.02;;;;;;;;;;4991486;28;20026;-72
2022/05/01 12:34:23;;;;;;;22.80;12.43;;;;;;;;;;4989319;28;20089;-72
2022/05/01 12:36:59;;;;;;;21.88;11.52;;;;;;;;;;4991925;28;20049;-71
2022/05/01 12:39:25;;;;;;;22.10;11.10;;;;;;;;;;4989315;28;20041;-71
2022/05/01 12:45:11;;;;;;;19.40;10.57;;;;;;;;;;4991520;28;20049;-71
2022/05/01 12:47:40;;;;;;;16.08;10.32;;;;;;;;;;4992848;28;20113;-72
2022/05/01 12:50:27;;;;;;;12.13;8.95;;;;;;;;;;4994786;28;20446;-72
2022/05/01 12:52:53;;;;;;;13.82;9.77;;;;;;;;;;4987836;28;20030;-72
2022/05/01 12:55:19;;;;;;;16.98;9.75;;;;;;;;;;4990463;28;20029;-72
2022/05/01 12:57:58;;;;;;;17.75;10.43;;;;;;;;;;4991925;28;20479;-72
2022/05/01 13:00:32;;;;;;;17.98;10.85;;;;;;;;;;4991985;28;20418;-71
2022/05/01 13:03:13;;;;;;;16.15;10.35;;;;;;;;;;4989445;28;20017;-72
2022/05/01 13:05:38;;;;;;;12.45;8.75;;;;;;;;;;5003230;28;20160;-71
2022/05/01 13:08:14;;;;;;;19.83;10.95;;;;;;;;;;4996559;28;20030;-72
2022/05/01 13:10:39;;;;;;;14.43;9.43;;;;;;;;;;5001054;28;20032;-71
2022/05/01 13:13:05;;;;;;;16.63;9.30;;;;;;;;;;4994456;28;20034;-71
2022/05/01 13:15:39;;;;;;;13.23;8.93;;;;;;;;;;5007462;28;20326;-71
2022/05/01 13:18:04;;;;;;;40.75;11.60;;;;;;;;;;4995740;28;20271;-71
2022/05/01 13:20:29;;;;;;;16.90;8.82;;;;;;;;;;4991593;28;20034;-72
2022/05/01 13:22:54;;;;;;;65.72;12.15;;;;;;;;;;4994448;28;20053;-71
2022/05/01 13:25:20;;;;;;;14.20;9.40;;;;;;;;;;4990496;28;20022;-69
2022/05/01 13:27:45;;;;;;;14.23;9.10;;;;;;;;;;4990706;28;20427;-71
2022/05/01 13:30:11;;;;;;;12.82;9.93;;;;;;;;;;5000117;28;20201;-71
2022/05/01 13:32:36;;;;;;;11.55;9.00;;;;;;;;;;4993928;28;20081;-71
2022/05/01 13:35:01;;;;;;;15.60;8.30;;;;;;;;;;4995527;28;20026;-70
2022/05/01 13:37:26;;;;;;;13.53;9.13;;;;;;;;;;4991234;28;20041;-70
2022/05/01 13:45:19;;;;;;;13.02;8.68;;;;;;;;;;4992564;28;20092;-78
2022/05/01 13:47:44;;;;;;;14.03;8.40;;;;;;;;;;4981890;28;20018;-70
2022/05/01 13:50:10;;;;;;;11.45;8.40;;;;;;;;;;5001198;28;20057;-71
2022/05/01 13:52:35;;;;;;;13.27;9.13;;;;;;;;;;5000062;28;20373;-72
2022/05/01 13:55:00;;;;;;;9.13;7.27;;;;;;;;;;4983108;28;20865;-72
2022/05/01 13:57:25;;;;;;;12.48;8.45;;;;;;;;;;4994737;28;20057;-72
2022/05/01 13:59:51;;;;;;;11.23;8.57;;;;;;;;;;5010355;28;20175;-71
2022/05/01 14:02:16;;;;;;;15.27;9.15;;;;;;;;;;4997489;28;20018;-72
2022/05/01 14:04:43;;;;;;;14.13;8.30;;;;;;;;;;5006971;28;20396;-70
2022/05/01 14:07:08;;;;;;;27.27;11.07;;;;;;;;;;5000995;28;20080;-71
2022/05/01 14:09:35;;;;;;;17.30;9.53;;;;;;;;;;4983530;28;20034;-72
2022/05/01 14:12:00;;;;;;;11.10;8.40;;;;;;;;;;4986193;28;20408;-72
2022/05/01 14:14:25;;;;;;;13.15;9.48;;;;;;;;;;4988312;28;20485;-71
2022/05/01 14:16:51;;;;;;;21.37;9.17;;;;;;;;;;5010099;28;20033;-71
2022/05/01 14:19:24;;;;;;;12.02;9.15;;;;;;;;;;4986116;28;20283;-72
2022/05/01 14:21:50;;;;;;;12.90;8.57;;;;;;;;;;5006571;28;20033;-70
2022/05/01 14:24:15;;;;;;;10.35;8.05;;;;;;;;;;5009648;28;20037;-70
2022/05/01 14:26:41;;;;;;;13.32;8.45;;;;;;;;;;5013735;28;20379;-71
2022/05/01 14:29:06;;;;;;;14.43;8.77;;;;;;;;;;5002160;28;20041;-71
2022/05/01 14:31:51;;;;;;;12.50;9.57;;;;;;;;;;5002347;28;20132;-72
2022/05/01 14:34:19;;;;;;;15.32;10.20;;;;;;;;;;5006251;28;20796;-72
2022/05/01 14:36:46;;;;;;;24.15;18.60;;;;;;;;;;5004468;28;20065;-72
2022/05/01 14:39:13;;;;;;;15.60;8.95;;;;;;;;;;5003013;28;20037;-72
2022/05/01 14:41:42;;;;;;;13.40;8.63;;;;;;;;;;5002775;28;20029;-71
2022/05/01 14:44:08;;;;;;;12.93;9.02;;;;;;;;;;4986591;28;20040;-72
2022/05/01 14:46:36;;;;;;;13.40;8.00;;;;;;;;;;5002081;28;20018;-72
2022/05/01 14:49:08;;;;;;;13.00;8.82;;;;;;;;;;4989995;28;20022;-72
2022/05/01 14:51:34;;;;;;;15.70;9.57;;;;;;;;;;5003615;28;20036;-72
2022/05/01 14:54:01;;;;;;;11.85;9.18;;;;;;;;;;5002159;28;20018;-71
2022/05/01 14:56:27;;;;;;;13.73;9.70;;;;;;;;;;4986486;28;20021;-71
2022/05/01 15:07:09;;;;;;;16.98;9.20;;;;;;;;;;5001493;28;20149;-73
2022/05/01 15:09:34;;;;;;;15.05;9.07;;;;;;;;;;5005823;28;20085;-72